createdAt,value
2022-11-21T00:01:01.738Z,-3.56
2022-11-21T00:03:28.197Z,-3.61
2022-11-21T00:05:54.608Z,-3.57
2022-11-21T00:08:21.770Z,-3.49
2022-11-21T00:10:48.504Z,-3.52
2022-11-21T00:13:20.469Z,-3.49
2022-11-21T00:15:47.479Z,-3.44
2022-11-21T00:18:14.578Z,-3.42
2022-11-21T00:20:42.006Z,-3.42
2022-11-21T00:23:09.060Z,-3.22
2022-11-21T00:25:36.119Z,-3.16
2022-11-21T00:28:03.054Z,-3.14
2022-11-21T00:30:29.947Z,-3.08
2022-11-21T00:32:58.380Z,-3.17
2022-11-21T00:35:24.782Z,-3.07
2022-11-21T00:37:51.189Z,-2.99
2022-11-21T00:40:18.263Z,-2.90
2022-11-21T00:42:44.718Z,-2.62
2022-11-21T00:45:11.283Z,-2.58
2022-11-21T00:47:37.741Z,-2.64
2022-11-21T00:50:04.563Z,-2.79
2022-11-21T00:52:30.983Z,-2.79
2022-11-21T00:54:57.467Z,-2.71
2022-11-21T00:57:23.857Z,-2.66
2022-11-21T00:59:50.278Z,-2.64
2022-11-21T01:02:16.718Z,-2.56
2022-11-21T01:04:43.249Z,-2.67
2022-11-21T01:07:09.712Z,-2.58
2022-11-21T01:09:36.158Z,-2.43
2022-11-21T01:12:02.612Z,-2.43
2022-11-21T01:14:29.387Z,-2.33
2022-11-21T01:16:56.037Z,-2.18
2022-11-21T01:19:22.543Z,-2.17
2022-11-21T01:21:48.973Z,-2.43
2022-11-21T01:24:15.513Z,-2.50
2022-11-21T01:26:42.189Z,-2.22
2022-11-21T01:29:08.826Z,-2.34
2022-11-21T01:31:35.997Z,-2.09
2022-11-21T01:34:02.466Z,-2.25
2022-11-21T01:36:33.079Z,-2.20
2022-11-21T01:39:02.533Z,-2.21
2022-11-21T01:41:33.504Z,-2.32
2022-11-21T01:44:01.451Z,-2.08
2022-11-21T01:46:28.742Z,-2.33
2022-11-21T01:49:02.213Z,-2.36
2022-11-21T01:51:33.842Z,-2.55
2022-11-21T01:54:09.250Z,-2.59
2022-11-21T01:57:02.383Z,-2.60
2022-11-21T01:59:56.292Z,-2.62
2022-11-21T02:02:27.706Z,-2.70
2022-11-21T02:04:55.779Z,-2.69
2022-11-21T02:07:24.596Z,-2.76
2022-11-21T02:09:58.142Z,-2.85
2022-11-21T02:12:31.571Z,-2.72
2022-11-21T02:14:58.910Z,-2.96
2022-11-21T02:17:26.974Z,-3.12
2022-11-21T02:19:59.218Z,-2.99
2022-11-21T02:22:41.002Z,-3.03
2022-11-21T02:25:10.093Z,-2.86
2022-11-21T02:27:36.596Z,-2.92
2022-11-21T02:30:06.427Z,-2.89
2022-11-21T02:32:35.892Z,-2.95
2022-11-21T02:35:02.830Z,-2.93
2022-11-21T02:37:30.940Z,-2.81
2022-11-21T02:40:01.545Z,-2.70
2022-11-21T02:42:48.896Z,-2.67
2022-11-21T02:45:30.322Z,-2.64
2022-11-21T02:48:00.843Z,-2.54
2022-11-21T02:50:32.668Z,-2.44
2022-11-21T02:52:59.154Z,-2.57
2022-11-21T02:55:26.293Z,-2.54
2022-11-21T02:57:53.690Z,-2.62
2022-11-21T03:00:20.717Z,-2.54
2022-11-21T03:02:47.390Z,-2.42
2022-11-21T03:05:17.042Z,-2.52
2022-11-21T03:07:43.986Z,-2.50
2022-11-21T03:10:10.705Z,-2.38
2022-11-21T03:12:38.334Z,-2.27
2022-11-21T03:15:06.782Z,-2.14
2022-11-21T03:17:33.498Z,-2.05
2022-11-21T03:19:59.948Z,-1.89
2022-11-21T03:22:26.796Z,-1.71
2022-11-21T03:24:53.213Z,-1.53
2022-11-21T03:27:19.637Z,-1.95
2022-11-21T03:29:46.079Z,-2.14
2022-11-21T03:32:12.476Z,-2.17
2022-11-21T03:34:38.893Z,-2.13
2022-11-21T03:37:05.470Z,-2.16
2022-11-21T03:39:31.883Z,-2.23
2022-11-21T03:41:58.410Z,-2.07
2022-11-21T03:44:24.985Z,-1.76
2022-11-21T03:46:51.532Z,-1.89
2022-11-21T03:49:18.003Z,-1.98
2022-11-21T03:51:45.182Z,-2.09
2022-11-21T03:54:11.769Z,-1.96
2022-11-21T03:56:39.805Z,-1.84
2022-11-21T03:59:06.776Z,-1.63
2022-11-21T04:01:36.639Z,-1.53
2022-11-21T04:04:03.511Z,-1.62
2022-11-21T04:06:31.404Z,-1.53
2022-11-21T04:08:58.082Z,-1.45
2022-11-21T04:11:24.580Z,-1.41
2022-11-21T04:13:51.925Z,-1.61
2022-11-21T04:16:18.503Z,-1.78
2022-11-21T04:18:45.485Z,-1.87
2022-11-21T04:21:11.976Z,-1.80
2022-11-21T04:23:38.430Z,-1.68
2022-11-21T04:26:04.973Z,-1.93
2022-11-21T04:28:31.761Z,-1.92
2022-11-21T04:31:10.445Z,-1.99
2022-11-21T04:33:38.353Z,-2.01
2022-11-21T04:36:05.152Z,-1.96
2022-11-21T04:38:31.553Z,-2.25
2022-11-21T04:40:57.985Z,-2.21
2022-11-21T04:43:24.386Z,-2.06
2022-11-21T04:45:50.790Z,-1.86
2022-11-21T04:48:17.620Z,-1.86
2022-11-21T04:50:45.361Z,-2.01
2022-11-21T04:53:11.807Z,-2.19
2022-11-21T04:55:38.288Z,-2.23
2022-11-21T04:58:04.775Z,-2.16
2022-11-21T05:00:31.456Z,-2.21
2022-11-21T05:03:05.770Z,-2.16
2022-11-21T05:05:33.162Z,-2.18
2022-11-21T05:08:00.267Z,-2.01
2022-11-21T05:10:26.981Z,-2.07
2022-11-21T05:13:19.344Z,-2.08
2022-11-21T05:15:46.289Z,-1.90
2022-11-21T05:18:13.020Z,-1.91
2022-11-21T05:20:39.476Z,-2.14
2022-11-21T05:23:06.261Z,-2.08
2022-11-21T05:25:32.796Z,-1.94
2022-11-21T05:27:59.429Z,-2.05
2022-11-21T05:30:26.116Z,-1.87
2022-11-21T05:32:53.278Z,-1.98
2022-11-21T05:35:19.782Z,-1.98
2022-11-21T05:37:46.488Z,-1.99
2022-11-21T05:40:13.100Z,-1.65
2022-11-21T05:42:59.144Z,-1.23
2022-11-21T05:45:25.734Z,-1.39
2022-11-21T05:47:52.261Z,-1.75
2022-11-21T05:50:19.009Z,-1.95
2022-11-21T05:52:45.655Z,-1.62
2022-11-21T05:55:12.092Z,-1.68
2022-11-21T05:57:38.842Z,-1.65
2022-11-21T06:00:05.909Z,-1.60
2022-11-21T06:02:51.078Z,-1.53
2022-11-21T06:05:17.566Z,-1.66
2022-11-21T06:07:44.024Z,-1.48
2022-11-21T06:10:19.668Z,-1.31
2022-11-21T06:12:46.122Z,-1.64
2022-11-21T06:15:12.713Z,-1.58
2022-11-21T06:17:39.237Z,-1.50
2022-11-21T06:20:06.213Z,-1.46
2022-11-21T06:22:32.666Z,-1.31
2022-11-21T06:24:59.188Z,-1.44
2022-11-21T06:27:25.751Z,-1.46
2022-11-21T06:29:52.327Z,-1.41
2022-11-21T06:32:18.944Z,-1.42
2022-11-21T06:34:45.511Z,-1.31
2022-11-21T06:37:11.915Z,-1.30
2022-11-21T06:39:38.403Z,-1.58
2022-11-21T06:42:05.152Z,-1.46
2022-11-21T06:44:31.770Z,-1.30
2022-11-21T06:46:58.566Z,-1.50
2022-11-21T06:49:25.163Z,-1.42
2022-11-21T06:51:51.628Z,-1.29
2022-11-21T06:54:18.274Z,-1.34
2022-11-21T06:56:44.769Z,-1.04
2022-11-21T06:59:11.424Z,-1.26
2022-11-21T07:01:38.158Z,-1.34
2022-11-21T07:04:04.949Z,-1.28
2022-11-21T07:06:31.575Z,-1.22
2022-11-21T07:09:31.532Z,-1.18
2022-11-21T07:11:44.882Z,-1.28
2022-11-21T07:14:11.413Z,-1.00
2022-11-21T07:16:38.043Z,-0.99
2022-11-21T07:19:04.529Z,-0.91
2022-11-21T07:21:30.999Z,-0.96
2022-11-21T07:23:57.572Z,-0.73
2022-11-21T07:26:23.992Z,-0.92
2022-11-21T07:28:50.504Z,-0.61
2022-11-21T07:31:17.152Z,-0.84
2022-11-21T07:33:43.731Z,-0.49
2022-11-21T07:36:11.577Z,-0.71
2022-11-21T07:38:37.989Z,-0.63
2022-11-21T07:41:04.535Z,-0.65
2022-11-21T07:43:30.944Z,-0.66
2022-11-21T07:45:57.350Z,-0.48
2022-11-21T07:48:23.755Z,-0.47
2022-11-21T07:50:50.258Z,-0.47
2022-11-21T07:53:16.734Z,-0.65
2022-11-21T07:55:43.367Z,-0.57
2022-11-21T07:58:12.359Z,-0.54
2022-11-21T08:00:42.674Z,-0.38
2022-11-21T08:03:09.322Z,-0.30
2022-11-21T08:05:37.595Z,-0.34
2022-11-21T08:08:04.379Z,-0.22
2022-11-21T08:10:30.885Z,-0.27
2022-11-21T08:12:57.356Z,-0.31
2022-11-21T08:15:23.782Z,-0.12
2022-11-21T08:17:50.219Z,-0.16
2022-11-21T08:20:17.171Z,-0.24
2022-11-21T08:22:43.923Z,-0.29
2022-11-21T08:25:10.853Z,-0.28
2022-11-21T08:27:38.780Z,-0.09
2022-11-21T08:30:11.054Z,-0.06
2022-11-21T08:32:37.589Z,0.12
2022-11-21T08:35:04.507Z,0.04
2022-11-21T08:37:30.991Z,0.12
2022-11-21T08:40:00.909Z,0.18
2022-11-21T08:42:27.676Z,0.20
2022-11-21T08:44:54.253Z,0.07
2022-11-21T08:47:20.963Z,0.25
2022-11-21T08:49:48.186Z,0.15
2022-11-21T08:52:18.088Z,0.35
2022-11-21T08:54:45.504Z,0.39
2022-11-21T08:57:12.083Z,0.57
2022-11-21T08:59:38.497Z,0.33
2022-11-21T09:02:05.041Z,0.48
2022-11-21T09:04:31.758Z,0.57
2022-11-21T09:06:58.321Z,0.46
2022-11-21T09:09:25.713Z,0.51
2022-11-21T09:11:52.493Z,0.72
2022-11-21T09:14:37.219Z,0.47
2022-11-21T09:17:22.260Z,0.45
2022-11-21T09:19:49.030Z,0.59
2022-11-21T09:22:15.558Z,0.40
2022-11-21T09:24:42.049Z,0.26
2022-11-21T09:27:08.582Z,0.15
2022-11-21T09:29:34.980Z,0.23
2022-11-21T09:32:01.478Z,0.30
2022-11-21T09:34:28.210Z,0.36
2022-11-21T09:36:55.501Z,0.31
2022-11-21T09:39:22.221Z,0.38
2022-11-21T09:42:30.922Z,0.51
2022-11-21T09:45:10.754Z,0.51
2022-11-21T09:47:41.339Z,0.40
2022-11-21T09:50:25.156Z,0.53
2022-11-21T09:52:57.634Z,0.34
2022-11-21T09:55:36.253Z,0.53
2022-11-21T09:58:06.862Z,0.29
2022-11-21T10:00:33.412Z,0.35
2022-11-21T10:03:01.324Z,0.42
2022-11-21T10:05:43.121Z,0.69
2022-11-21T10:08:48.089Z,0.55
2022-11-21T10:11:34.726Z,0.52
2022-11-21T10:14:02.013Z,0.65
2022-11-21T10:16:55.768Z,0.64
2022-11-21T10:19:50.624Z,0.49
2022-11-21T10:22:29.240Z,0.44
2022-11-21T10:25:01.190Z,0.42
2022-11-21T10:27:38.954Z,0.44
2022-11-21T10:30:13.324Z,0.41
2022-11-21T10:32:44.546Z,0.37
2022-11-21T10:35:29.246Z,0.55
2022-11-21T10:38:01.077Z,0.77
2022-11-21T10:40:36.874Z,0.65
2022-11-21T10:43:35.482Z,0.68
2022-11-21T10:46:01.990Z,0.49
2022-11-21T10:48:28.402Z,0.71
2022-11-21T10:51:39.772Z,0.89
2022-11-21T10:54:27.814Z,0.89
2022-11-21T10:57:03.512Z,0.84
2022-11-21T10:59:31.449Z,0.83
2022-11-21T11:02:21.785Z,0.75
2022-11-21T11:04:52.222Z,0.87
2022-11-21T11:07:23.812Z,1.08
2022-11-21T11:09:52.352Z,0.96
2022-11-21T11:12:18.760Z,1.13
2022-11-21T11:14:51.368Z,1.29
2022-11-21T11:17:26.707Z,1.21
2022-11-21T11:20:01.530Z,1.28
2022-11-21T11:22:29.746Z,1.17
2022-11-21T11:25:00.457Z,1.05
2022-11-21T11:27:29.521Z,1.10
2022-11-21T11:29:56.422Z,0.88
2022-11-21T11:32:23.762Z,1.22
2022-11-21T11:35:00.775Z,1.20
2022-11-21T11:37:41.831Z,0.99
2022-11-21T11:40:24.118Z,1.17
2022-11-21T11:43:27.872Z,1.16
2022-11-21T11:46:34.810Z,1.34
2022-11-21T11:49:21.166Z,1.47
2022-11-21T11:51:52.984Z,1.27
2022-11-21T11:54:29.831Z,1.46
2022-11-21T11:56:57.675Z,1.53
2022-11-21T11:59:39.359Z,1.83
2022-11-21T12:02:26.495Z,1.91
2022-11-21T12:05:21.129Z,1.66
2022-11-21T12:08:44.876Z,1.62
2022-11-21T12:11:33.408Z,1.90
2022-11-21T12:14:11.440Z,2.16
2022-11-21T12:16:41.247Z,2.11
2022-11-21T12:19:13.842Z,2.24
2022-11-21T12:21:40.507Z,2.05
2022-11-21T12:24:10.430Z,1.99
2022-11-21T12:26:42.766Z,1.89
2022-11-21T12:29:12.245Z,1.56
2022-11-21T12:31:53.810Z,1.94
2022-11-21T12:34:41.564Z,2.40
2022-11-21T12:37:38.803Z,2.26
2022-11-21T12:40:26.993Z,2.31
2022-11-21T12:43:30.961Z,2.10
2022-11-21T12:46:35.123Z,2.28
2022-11-21T12:49:54.332Z,1.79
2022-11-21T12:52:52.119Z,2.02
2022-11-21T12:55:39.014Z,2.22
2022-11-21T12:58:12.957Z,2.09
2022-11-21T13:01:18.156Z,2.01
2022-11-21T13:03:55.048Z,2.15
2022-11-21T13:06:34.021Z,2.21
2022-11-21T13:09:04.967Z,2.24
2022-11-21T13:11:56.526Z,1.78
2022-11-21T13:14:37.648Z,1.77
2022-11-21T13:17:09.379Z,1.73
2022-11-21T13:20:12.865Z,1.94
2022-11-21T13:22:39.239Z,1.93
2022-11-21T13:25:14.635Z,1.82
2022-11-21T13:27:42.563Z,1.90
2022-11-21T13:30:09.300Z,1.76
2022-11-21T13:32:44.826Z,1.82
2022-11-21T13:35:14.985Z,1.63
2022-11-21T13:38:03.512Z,1.46
2022-11-21T13:40:29.876Z,1.58
2022-11-21T13:43:31.236Z,1.51
2022-11-21T13:45:56.475Z,1.54
2022-11-21T13:48:30.469Z,1.60
2022-11-21T13:51:15.556Z,1.82
2022-11-21T13:54:22.373Z,1.63
2022-11-21T13:57:25.957Z,1.55
2022-11-21T14:00:21.526Z,1.36
2022-11-21T14:03:10.127Z,1.37
2022-11-21T14:06:19.642Z,1.20
2022-11-21T14:09:14.398Z,1.06
2022-11-21T14:12:20.219Z,1.08
2022-11-21T14:14:53.749Z,1.18
2022-11-21T14:17:42.138Z,1.45
2022-11-21T14:20:16.751Z,1.36
2022-11-21T14:22:57.175Z,1.52
2022-11-21T14:25:32.868Z,1.23
2022-11-21T14:27:59.521Z,1.48
2022-11-21T14:30:38.572Z,1.16
2022-11-21T14:33:26.564Z,1.20
2022-11-21T14:36:01.093Z,1.02
2022-11-21T14:38:29.807Z,0.92
2022-11-21T14:41:21.910Z,1.02
2022-11-21T14:43:48.392Z,0.87
2022-11-21T14:46:16.265Z,0.88
2022-11-21T14:48:42.797Z,0.73
2022-11-21T14:51:11.051Z,0.94
2022-11-21T14:53:40.088Z,0.90
2022-11-21T14:56:08.393Z,0.72
2022-11-21T14:58:34.776Z,0.75
2022-11-21T15:01:02.834Z,0.76
2022-11-21T15:03:29.441Z,0.81
2022-11-21T15:06:07.530Z,0.85
2022-11-21T15:11:24.058Z,0.54
2022-11-21T15:14:14.919Z,0.51
2022-11-21T15:16:42.569Z,0.61
2022-11-21T15:19:10.171Z,0.77
2022-11-21T15:21:36.702Z,0.60
2022-11-21T15:24:18.443Z,0.52
2022-11-21T15:26:47.369Z,0.50
2022-11-21T15:29:21.380Z,0.56
2022-11-21T15:32:15.738Z,0.64
2022-11-21T15:34:42.837Z,0.67
2022-11-21T15:37:17.058Z,0.57
2022-11-21T15:39:50.003Z,0.53
2022-11-21T15:42:29.677Z,0.46
2022-11-21T15:45:21.240Z,0.49
2022-11-21T15:47:48.621Z,0.57
2022-11-21T15:50:16.006Z,0.54
2022-11-21T15:52:48.270Z,0.68
2022-11-21T15:55:25.167Z,0.63
2022-11-21T15:57:51.625Z,0.59
2022-11-21T16:00:18.655Z,0.55
2022-11-21T16:02:45.150Z,0.46
2022-11-21T16:05:13.892Z,0.56
2022-11-21T16:07:41.263Z,0.50
2022-11-21T16:10:15.377Z,0.47
2022-11-21T16:12:47.105Z,0.50
2022-11-21T16:15:14.209Z,0.47
2022-11-21T16:17:41.584Z,0.55
2022-11-21T16:20:08.623Z,0.48
2022-11-21T16:22:35.039Z,0.48
2022-11-21T16:25:01.501Z,0.39
2022-11-21T16:27:28.033Z,0.41
2022-11-21T16:29:54.484Z,0.40
2022-11-21T16:32:20.880Z,0.48
2022-11-21T16:34:47.280Z,0.37
2022-11-21T16:37:14.385Z,0.28
2022-11-21T16:39:41.801Z,0.23
2022-11-21T16:42:10.990Z,0.05
2022-11-21T16:44:37.395Z,0.09
2022-11-21T16:47:08.391Z,-0.03
2022-11-21T16:49:36.226Z,-0.15
2022-11-21T16:52:02.678Z,-0.18
2022-11-21T16:54:29.125Z,-0.28
2022-11-21T16:56:55.701Z,-0.35
2022-11-21T16:59:22.090Z,-0.39
2022-11-21T17:01:48.558Z,-0.44
2022-11-21T17:04:29.155Z,-0.51
2022-11-21T17:06:55.710Z,-0.57
2022-11-21T17:09:22.160Z,-0.50
2022-11-21T17:11:48.582Z,-0.54
2022-11-21T17:14:14.988Z,-0.63
2022-11-21T17:16:45.710Z,-0.45
2022-11-21T17:19:12.510Z,-0.51
2022-11-21T17:21:39.156Z,-0.59
2022-11-21T17:24:05.822Z,-0.66
2022-11-21T17:26:36.622Z,-0.59
2022-11-21T17:29:03.582Z,-0.67
2022-11-21T17:31:30.393Z,-0.49
2022-11-21T17:33:58.578Z,-0.62
2022-11-21T17:36:27.344Z,-0.67
2022-11-21T17:38:54.701Z,-0.84
2022-11-21T17:41:22.938Z,-0.89
2022-11-21T17:43:49.359Z,-0.91
2022-11-21T17:46:17.999Z,-0.88
2022-11-21T17:48:49.968Z,-0.88
2022-11-21T17:51:26.441Z,-0.88
2022-11-21T17:53:53.202Z,-0.91
2022-11-21T17:56:22.357Z,-0.92
2022-11-21T17:58:50.243Z,-0.81
2022-11-21T18:01:20.423Z,-1.01
2022-11-21T18:03:57.352Z,-1.01
2022-11-21T18:06:24.750Z,-0.93
2022-11-21T18:08:51.182Z,-1.03
2022-11-21T18:11:21.334Z,-0.99
2022-11-21T18:13:48.644Z,-1.04
2022-11-21T18:16:20.821Z,-0.98
2022-11-21T18:18:47.726Z,-0.92
2022-11-21T18:21:16.448Z,-0.82
2022-11-21T18:23:43.986Z,-0.92
2022-11-21T18:26:21.039Z,-0.67
2022-11-21T18:29:13.611Z,-0.80
2022-11-21T18:31:42.735Z,-0.70
2022-11-21T18:34:09.147Z,-0.86
2022-11-21T18:36:36.034Z,-1.03
2022-11-21T18:39:08.885Z,-1.18
2022-11-21T18:41:38.790Z,-1.13
2022-11-21T18:44:06.693Z,-1.24
2022-11-21T18:46:35.836Z,-1.21
2022-11-21T18:49:05.867Z,-1.20
2022-11-21T18:51:33.674Z,-1.14
2022-11-21T18:54:06.832Z,-1.22
2022-11-21T18:56:33.661Z,-1.28
2022-11-21T18:59:00.235Z,-1.37
2022-11-21T19:01:28.983Z,-1.39
2022-11-21T19:03:56.537Z,-1.31
2022-11-21T19:06:24.747Z,-1.41
2022-11-21T19:08:53.218Z,-1.21
2022-11-21T19:11:20.779Z,-1.20
2022-11-21T19:13:48.691Z,-1.35
2022-11-21T19:16:17.869Z,-1.44
2022-11-21T19:18:55.022Z,-1.56
2022-11-21T19:21:31.038Z,-1.65
2022-11-21T19:23:57.478Z,-1.71
2022-11-21T19:26:23.955Z,-1.51
2022-11-21T19:28:50.393Z,-1.46
2022-11-21T19:31:18.396Z,-1.60
2022-11-21T19:33:45.462Z,-1.62
2022-11-21T19:36:22.043Z,-1.54
2022-11-21T19:38:51.164Z,-1.67
2022-11-21T19:41:26.671Z,-1.61
2022-11-21T19:44:03.588Z,-1.50
2022-11-21T19:46:33.043Z,-1.64
2022-11-21T19:49:00.597Z,-1.68
2022-11-21T19:51:33.260Z,-1.87
2022-11-21T19:54:01.890Z,-1.93
2022-11-21T19:56:28.433Z,-1.90
2022-11-21T19:58:56.320Z,-1.91
2022-11-21T20:01:24.933Z,-1.92
2022-11-21T20:03:54.037Z,-2.02
2022-11-21T20:06:35.068Z,-2.02
2022-11-21T20:09:05.509Z,-1.88
2022-11-21T20:11:32.833Z,-2.04
2022-11-21T20:13:59.958Z,-2.02
2022-11-21T20:16:27.991Z,-2.08
2022-11-21T20:18:57.013Z,-2.09
2022-11-21T20:21:23.989Z,-2.05
2022-11-21T20:23:50.890Z,-2.12
2022-11-21T20:26:19.013Z,-2.18
2022-11-21T20:28:46.991Z,-2.15
2022-11-21T20:31:14.792Z,-1.85
2022-11-21T20:33:48.937Z,-1.84
2022-11-21T20:36:19.382Z,-1.93
2022-11-21T20:39:04.029Z,-2.10
2022-11-21T20:41:32.730Z,-2.08
2022-11-21T20:46:48.137Z,-1.92
2022-11-21T20:49:14.558Z,-1.83
2022-11-21T20:54:28.108Z,-2.08
2022-11-21T20:56:54.825Z,-2.22
2022-11-21T20:59:21.258Z,-2.09
2022-11-21T21:01:47.753Z,-2.19
2022-11-21T21:04:14.198Z,-2.15
2022-11-21T21:06:40.665Z,-2.23
2022-11-21T21:09:07.217Z,-2.13
2022-11-21T21:14:21.486Z,-2.18
2022-11-21T21:16:48.354Z,-2.15
2022-11-21T21:19:14.972Z,-2.21
2022-11-21T21:21:41.755Z,-1.92
2022-11-21T21:24:10.773Z,-1.98
2022-11-21T21:26:42.719Z,-2.05
2022-11-21T21:29:15.596Z,-1.97
2022-11-21T21:31:48.618Z,-2.09
2022-11-21T21:34:16.834Z,-2.13
2022-11-21T21:36:43.328Z,-2.31
2022-11-21T21:39:09.863Z,-2.20
2022-11-21T21:41:39.750Z,-2.13
2022-11-21T21:44:06.438Z,-2.16
2022-11-21T21:46:33.001Z,-2.16
2022-11-21T21:48:59.483Z,-2.15
2022-11-21T21:51:30.889Z,-2.23
2022-11-21T21:53:58.807Z,-2.20
2022-11-21T21:56:27.456Z,-2.27
2022-11-21T21:58:54.571Z,-2.45
2022-11-21T22:01:23.884Z,-2.51
2022-11-21T22:03:58.609Z,-2.48
2022-11-21T22:06:25.648Z,-2.48
2022-11-21T22:08:52.540Z,-2.33
2022-11-21T22:11:21.631Z,-2.48
2022-11-21T22:13:53.485Z,-2.53
2022-11-21T22:16:20.038Z,-2.44
2022-11-21T22:18:46.602Z,-2.35
2022-11-21T22:21:25.301Z,-2.45
2022-11-21T22:24:17.753Z,-2.51
2022-11-21T22:26:38.354Z,-2.32
2022-11-21T22:29:05.253Z,-2.35
2022-11-21T22:31:32.059Z,-2.52
2022-11-21T22:33:59.054Z,-2.49
2022-11-21T22:36:25.564Z,-2.30
2022-11-21T22:38:55.674Z,-2.23
2022-11-21T22:41:24.512Z,-2.27
2022-11-21T22:43:54.088Z,-2.48
2022-11-21T22:46:20.853Z,-2.50
2022-11-21T22:48:47.819Z,-2.55
2022-11-21T22:51:19.280Z,-2.50
2022-11-21T22:53:47.155Z,-2.39
2022-11-21T22:56:16.315Z,-2.56
2022-11-21T22:58:42.757Z,-2.52
2022-11-21T23:01:12.323Z,-2.45
2022-11-21T23:03:39.112Z,-2.30
2022-11-21T23:06:09.839Z,-2.44
2022-11-21T23:08:37.284Z,-2.50
2022-11-21T23:11:10.046Z,-2.16
2022-11-21T23:13:37.993Z,-2.24
2022-11-21T23:16:05.740Z,-2.30
2022-11-21T23:18:32.975Z,-2.28
2022-11-21T23:20:59.925Z,-2.19
2022-11-21T23:23:26.359Z,-2.04
2022-11-21T23:25:53.049Z,-2.25
2022-11-21T23:28:19.544Z,-2.41
2022-11-21T23:30:47.464Z,-2.36
2022-11-21T23:33:14.507Z,-2.23
2022-11-21T23:35:43.001Z,-2.32
2022-11-21T23:38:09.844Z,-2.12
2022-11-21T23:40:36.494Z,-2.23
2022-11-21T23:43:02.918Z,-2.09
2022-11-21T23:45:29.460Z,-2.25
2022-11-21T23:47:55.898Z,-2.25
2022-11-21T23:50:22.571Z,-2.18
2022-11-21T23:52:49.073Z,-1.89
2022-11-21T23:55:16.764Z,-2.04
2022-11-21T23:57:49.579Z,-2.01
